Latest Weather Observations for Cairns

IDQ60801

Issued at 9:02 am EST Sunday 26 June 2016 (issued every 30 minutes, with the page automatically refreshed every 10 minutes)

About weather observations | Map of weather stations | Latest weather observations for QLD | Other Formats
Station Details ID: 031011 Name: CAIRNS AERO Lat: -16.87 Lon: 145.75 Height: 2.22 m
Data from the previous 72 hours. | See also: Recent months at Cairns
Date/Time
EST
Temp
°C
App
Temp
°C
Dew
Point
°C
Rel
Hum
%
Delta-T
°C
Wind Press
QNH
hPa
Press
MSL
hPa
Rain since
9am
mm
Dir  Spd
km/h
Gust
km/h
Spd
kts
Gust
kts
26/08:30am 24.0 25.3 22.3 90 1.1 SSE 19 28 10 15 1015.7 1015.7 4.2
26/08:00am 23.4 24.5 21.3 88 1.4 S 17 26 9 14 1015.6 1015.6 4.2
26/07:30am 22.9 24.5 21.4 91 1.0 S 15 20 8 11 1015.5 1015.5 4.2
26/07:00am 22.6 23.7 21.2 92 0.9 S 17 26 9 14 1015.4 1015.4 4.2
26/06:30am 22.5 24.3 21.1 92 0.9 S 13 20 7 11 1015.2 1015.2 4.0
26/06:00am 22.4 23.5 21.2 93 0.8 S 17 28 9 15 1014.7 1014.7 4.0
26/05:30am 22.1 23.9 21.1 94 0.7 S 13 22 7 12 1014.6 1014.6 4.0
26/05:00am 22.1 23.6 21.3 95 0.5 S 15 22 8 12 1014.4 1014.4 3.4
26/04:30am 22.1 23.3 20.7 92 0.9 SSE 15 24 8 13 1014.2 1014.2 2.0
26/04:00am 22.4 23.3 20.9 91 1.0 S 17 28 9 15 1013.8 1013.8 1.4
26/03:30am 22.5 23.9 21.0 91 1.0 S 15 26 8 14 1013.8 1013.8 1.4
26/03:24am 22.3 23.2 20.9 92 0.9 S 17 26 9 14 1013.8 1013.8 1.4
26/03:00am 22.1 23.4 20.9 93 0.8 S 15 24 8 13 1014.0 1014.0 0.4
26/02:30am 21.9 23.1 20.7 93 0.8 S 15 24 8 13 1014.1 1014.1 0.0
26/02:00am 22.1 22.3 20.2 89 1.2 SSE 19 26 10 14 1014.4 1014.4 0.0
26/01:30am 22.1 22.6 20.0 88 1.3 SSE 17 28 9 15 1014.6 1014.6 0.0
26/01:00am 21.9 22.1 20.2 90 1.1 SSE 19 26 10 14 1014.9 1014.9 0.0
26/12:30am 21.8 22.3 20.1 90 1.1 SSE 17 30 9 16 1015.1 1015.1 0.0
26/12:00am 21.9 21.9 19.8 88 1.3 S 19 28 10 15 1015.4 1015.4 0.0
 
Date/Time
EST
Temp
°C
App
Temp
°C
Dew
Point
°C
Rel
Hum
%
Delta-T
°C
Wind Press
QNH
hPa
Press
MSL
hPa
Rain since
9am
mm
Dir  Spd
km/h
Gust
km/h
Spd
kts
Gust
kts
25/11:30pm 22.6 23.4 19.9 85 1.7 SSE 15 20 8 11 1015.6 1015.6 0.0
25/11:00pm 22.8 23.2 19.8 83 1.9 SSE 17 26 9 14 1015.9 1015.9 0.0
25/10:30pm 23.0 24.3 19.2 79 2.4 SSE 11 17 6 9 1015.9 1015.9 0.0
25/10:00pm 23.0 23.4 19.0 78 2.5 S 15 22 8 12 1016.0 1016.0 0.0
25/09:30pm 22.7 23.4 18.9 79 2.4 SSE 13 20 7 11 1015.9 1015.9 0.0
25/09:00pm 22.7 23.0 18.7 78 2.5 SSE 15 20 8 11 1015.9 1015.9 0.0
25/08:30pm 22.9 23.5 18.7 77 2.7 S 13 20 7 11 1015.6 1015.6 0.0
25/08:00pm 23.2 23.5 18.7 76 2.8 SSE 15 26 8 14 1015.6 1015.6 0.0
25/07:30pm 23.3 23.1 18.6 75 3.0 SSE 17 26 9 14 1015.3 1015.3 0.0
25/07:00pm 23.4 22.7 18.7 75 3.0 SSE 20 28 11 15 1015.1 1015.1 0.0
25/06:30pm 23.4 23.3 18.7 75 3.0 SSE 17 22 9 12 1014.8 1014.8 0.0
25/06:00pm 23.7 23.1 18.4 72 3.3 SSE 19 26 10 14 1014.6 1014.6 0.0
25/05:30pm 24.1 24.3 18.5 71 3.5 SSE 15 24 8 13 1014.3 1014.3 0.0
25/05:00pm 24.9 24.5 19.3 71 3.6 SSE 20 28 11 15 1014.2 1014.2 0.0
25/04:30pm 25.2 23.2 19.1 69 3.9 SE 28 35 15 19 1014.1 1014.1 0.0
25/04:00pm 26.0 24.5 19.4 67 4.3 SE 26 33 14 18 1013.9 1013.9 0.0
25/03:30pm 27.2 26.3 19.8 64 4.8 SE 24 30 13 16 1013.9 1013.9 0.0
25/03:00pm 26.6 25.5 19.5 65 4.6 SE 24 28 13 15 1013.9 1013.9 0.0
25/02:30pm 26.7 26.0 19.6 65 4.6 SE 22 30 12 16 1014.2 1014.2 0.0
25/02:00pm 27.5 26.2 19.0 59 5.5 ESE 24 30 13 16 1014.3 1014.3 0.0
25/01:30pm 27.8 26.8 19.6 61 5.3 SE 24 30 13 16 1014.5 1014.5 0.0
25/01:00pm 27.2 24.9 18.5 59 5.5 SE 28 33 15 18 1015.1 1015.1 0.0
25/12:30pm 27.1 24.9 18.7 60 5.4 SE 28 33 15 18 1015.5 1015.5 0.0
25/12:00pm 27.4 25.4 18.4 58 5.7 SSE 26 33 14 18 1015.8 1015.8 0.0
25/11:30am 26.9 26.0 18.2 59 5.5 SE 20 30 11 16 1016.2 1016.2 0.0
25/11:00am 26.0 25.8 17.6 60 5.3 SSE 15 24 8 13 1016.4 1016.4 0.0
25/10:30am 25.9 25.0 18.3 63 4.8 SSE 20 28 11 15 1016.4 1016.4 0.0
25/10:00am 25.6 25.1 19.0 67 4.2 SSE 20 28 11 15 1016.3 1016.3 0.0
25/09:30am 25.9 25.1 20.0 70 3.8 SSE 24 32 13 17 1016.2 1016.2 0.0
25/09:00am 24.5 24.8 20.8 80 2.4 SSE 20 32 11 17 1015.9 1015.9 0.0
25/08:30am 24.4 24.6 21.3 83 2.0 S 22 32 12 17 1015.6 1015.6 0.0
25/08:00am 24.3 25.5 21.4 84 1.9 S 17 24 9 13 1015.3 1015.3 0.0
25/07:30am 24.5 26.5 21.6 84 1.9 S 13 22 7 12 1014.9 1014.9 0.0
25/07:00am 23.9 25.9 21.6 87 1.5 SE 13 17 7 9 1014.6 1014.6 0.0
25/06:30am 23.9 26.7 21.6 87 1.5 S 9 13 5 7 1014.3 1014.3 0.0
25/06:00am 23.2 26.0 21.5 90 1.1 SSE 9 13 5 7 1014.2 1014.2 0.0
25/05:30am 23.4 25.8 21.5 89 1.3 S 11 17 6 9 1014.0 1014.0 0.0
25/05:00am 22.9 24.5 21.5 92 0.9 SSE 15 22 8 12 1013.9 1013.9 0.0
25/04:30am 23.2 26.1 21.8 92 0.9 SE 9 13 5 7 1013.8 1013.8 0.0
25/04:00am 22.7 26.2 21.9 95 0.5 ESE 6 11 3 6 1013.5 1013.5 0.0
25/03:30am 23.0 24.6 22.2 95 0.5 SE 17 19 9 10 1013.5 1013.5 0.0
25/03:00am 23.4 25.8 22.2 93 0.8 SE 13 17 7 9 1013.6 1013.6 0.0
25/02:30am 24.0 26.4 22.3 90 1.1 S 13 19 7 10 1013.5 1013.5 0.0
25/02:00am 24.1 26.7 22.7 92 0.9 SSE 13 20 7 11 1014.0 1014.0 0.0
25/01:30am 24.0 27.2 22.4 91 1.1 SSE 9 13 5 7 1014.2 1014.2 0.0
25/01:00am 23.0 26.6 22.0 94 0.7 NNW 6 9 3 5 1014.3 1014.3 0.0
25/12:30am 24.1 28.7 22.5 91 1.1 ESE 2 6 1 3 1014.4 1014.4 0.0
25/12:00am 23.9 28.2 22.7 93 0.8 S 4 9 2 5 1014.6 1014.6 0.0
 
Date/Time
EST
Temp
°C
App
Temp
°C
Dew
Point
°C
Rel
Hum
%
Delta-T
°C
Wind Press
QNH
hPa
Press
MSL
hPa
Rain since
9am
mm
Dir  Spd
km/h
Gust
km/h
Spd
kts
Gust
kts
24/11:30pm 23.7 28.6 22.3 92 0.9 CALM 0 4 0 2 1014.8 1014.8 0.0
24/11:00pm 24.3 28.0 22.6 90 1.1 S 7 11 4 6 1014.9 1014.9 0.0
24/10:30pm 24.4 27.9 22.8 91 1.1 SSE 9 11 5 6 1014.9 1014.9 0.0
24/10:00pm 24.7 28.2 22.8 89 1.3 SSE 9 13 5 7 1014.9 1014.9 0.0
24/09:30pm 25.0 28.0 22.7 87 1.5 S 11 15 6 8 1014.7 1014.7 0.0
24/09:00pm 24.9 28.1 23.0 89 1.3 SSE 11 15 6 8 1014.6 1014.6 0.0
24/08:30pm 25.0 28.4 22.7 87 1.5 S 9 13 5 7 1014.5 1014.5 0.0
24/08:00pm 25.5 28.8 22.6 84 2.0 S 9 13 5 7 1014.5 1014.5 0.0
24/07:30pm 25.7 28.4 22.8 84 2.0 SSE 13 17 7 9 1014.1 1014.1 0.0
24/07:00pm 26.0 28.9 22.5 81 2.4 S 11 20 6 11 1013.7 1013.7 0.0
24/06:30pm 25.7 28.9 23.0 85 1.8 W 11 15 6 8 1013.3 1013.3 0.0
24/06:00pm 25.7 29.3 22.0 80 2.5 NE 6 11 3 6 1013.0 1013.0 0.0
24/05:30pm 26.6 29.8 22.4 78 2.8 NE 9 13 5 7 1012.7 1012.7 0.0
24/05:00pm 27.1 30.8 23.3 80 2.6 NNE 9 15 5 8 1012.6 1012.6 0.0
24/04:30pm 27.4 31.4 23.8 81 2.5 N 9 15 5 8 1012.4 1012.4 0.0
24/04:00pm 28.0 31.5 23.6 77 3.0 NNE 11 19 6 10 1012.2 1012.2 0.0
24/03:30pm 28.5 31.5 23.4 74 3.5 NNE 13 19 7 10 1012.0 1012.0 0.0
24/03:00pm 28.4 31.4 24.0 77 3.0 NNE 15 20 8 11 1012.0 1012.0 0.0
24/02:30pm 28.4 31.3 24.4 79 2.8 NNE 17 20 9 11 1012.1 1012.1 0.0
24/02:00pm 29.2 31.7 23.2 70 4.1 NE 15 19 8 10 1012.3 1012.3 0.0
24/01:30pm 28.8 31.9 24.1 76 3.3 NNE 15 20 8 11 1012.7 1012.7 0.0
24/01:00pm 29.5 32.0 23.2 69 4.3 ENE 15 19 8 10 1013.0 1013.0 0.0
24/12:30pm 29.3 32.0 23.5 71 4.0 NE 15 19 8 10 1013.6 1013.6 0.0
24/12:00pm 29.0 31.2 23.2 71 4.0 NE 17 20 9 11 1014.0 1014.0 0.0
24/11:30am 29.4 32.3 22.4 66 4.7 E 11 17 6 9 1014.3 1014.3 0.0
24/11:00am 28.9 31.9 21.9 66 4.7 SE 9 15 5 8 1014.6 1014.6 0.0
24/10:30am 28.2 30.7 21.7 68 4.4 SSE 11 15 6 8 1014.8 1014.8 0.0
24/10:00am 28.4 31.6 22.4 70 4.1 SE 9 15 5 8 1015.1 1015.1 0.0
24/09:30am 27.2 32.0 22.8 77 3.0 NNE 2 7 1 4 1015.2 1015.2 0.0
24/09:00am 25.3 28.6 21.8 81 2.3 NNW 7 9 4 5 1015.1 1015.1 0.0
24/08:30am 24.6 28.2 22.1 86 1.7 WNW 6 7 3 4 1014.9 1014.9 0.0
24/08:00am 23.4 26.9 21.8 91 1.1 W 6 7 3 4 1014.6 1014.6 0.0
24/07:30am 23.3 26.2 21.7 91 1.1 SE 9 11 5 6 1014.1 1014.1 0.0
24/07:00am 22.4 25.7 21.4 94 0.7 N 6 9 3 5 1013.7 1013.7 0.0
24/06:30am 22.4 26.5 21.6 95 0.5 W 2 7 1 4 1013.3 1013.3 0.0
24/06:00am 22.0 26.1 21.5 97 0.3 WNW 2 7 1 4 1013.0 1013.0 0.0
24/05:30am 21.9 25.5 21.2 96 0.5 W 4 7 2 4 1012.9 1012.9 0.0
24/05:00am 22.2 26.2 21.4 95 0.5 SW 2 7 1 4 1012.8 1012.8 0.0
24/04:30am 22.8 26.5 21.4 92 0.9 S 4 11 2 6 1012.7 1012.7 0.0
24/04:00am 22.1 25.8 21.4 96 0.5 NNE 4 9 2 5 1012.6 1012.6 0.0
24/03:30am 22.5 27.0 21.5 94 0.7 CALM 0 4 0 2 1012.5 1012.5 0.0
24/03:00am 22.9 26.0 21.5 92 0.9 SSE 7 11 4 6 1012.6 1012.6 0.0
24/02:30am 23.4 25.5 21.7 90 1.1 SE 13 19 7 10 1012.8 1012.8 0.0
24/02:00am 23.2 24.7 22.0 93 0.8 SE 17 20 9 11 1013.1 1013.1 0.0
24/01:30am 23.5 25.7 21.9 91 1.1 SE 13 19 7 10 1013.2 1013.2 0.0
24/01:00am 23.5 26.7 21.6 89 1.3 NNE 7 9 4 5 1013.4 1013.4 0.0
24/12:30am 24.7 28.2 21.8 84 1.9 S 6 13 3 7 1013.8 1013.8 0.0
24/12:00am 24.3 28.5 21.8 86 1.7 NNE 2 7 1 4 1013.7 1013.7 0.0
 
Date/Time
EST
Temp
°C
App
Temp
°C
Dew
Point
°C
Rel
Hum
%
Delta-T
°C
Wind Press
QNH
hPa
Press
MSL
hPa
Rain since
9am
mm
Dir  Spd
km/h
Gust
km/h
Spd
kts
Gust
kts
23/11:30pm 24.4 27.6 21.7 85 1.8 SSE 7 11 4 6 1013.7 1013.7 0.0
23/11:00pm 24.4 26.6 21.9 86 1.7 SE 13 17 7 9 1013.9 1013.9 0.0
23/10:30pm 24.4 26.7 22.1 87 1.5 SE 13 17 7 9 1013.8 1013.8 0.0
23/10:00pm 25.1 27.1 21.6 81 2.3 SSE 13 19 7 10 1013.7 1013.7 0.0
23/09:30pm 25.5 28.4 21.8 80 2.5 S 9 15 5 8 1013.5 1013.5 0.0
23/09:00pm 25.2 27.7 21.7 81 2.3 SSE 11 13 6 7 1013.5 1013.5 0.0
23/08:30pm 25.5 28.0 21.8 80 2.5 S 11 15 6 8 1013.4 1013.4 0.0
23/08:00pm 25.4 29.3 21.9 81 2.3 SW 4 11 2 6 1013.3 1013.3 0.0
23/07:30pm 25.3 28.7 22.0 82 2.2 SSE 7 11 4 6 1012.9 1012.9 0.0
23/07:00pm 25.4 28.0 21.9 81 2.3 SE 11 13 6 7 1012.6 1012.6 0.0
23/06:30pm 25.4 27.9 21.7 80 2.5 S 11 17 6 9 1012.2 1012.2 0.0
23/06:00pm 25.3 28.1 21.6 80 2.5 S 9 11 5 6 1012.1 1012.1 0.0
23/05:30pm 26.2 27.6 21.8 77 2.9 SE 17 20 9 11 1011.8 1011.8 0.0
23/05:00pm 26.7 28.1 21.9 75 3.2 SE 17 26 9 14 1011.5 1011.5 0.0
23/04:30pm 27.3 29.5 21.8 72 3.7 ESE 13 17 7 9 1011.4 1011.4 0.0
23/04:00pm 27.6 29.3 21.6 70 4.0 SSE 15 20 8 11 1011.3 1011.3 0.0
23/03:30pm 27.6 29.2 22.1 72 3.7 SE 17 19 9 10 1011.3 1011.3 0.0
23/03:00pm 28.0 30.5 22.5 72 3.7 SE 13 17 7 9 1011.3 1011.3 0.0
23/02:30pm 27.9 30.0 21.7 69 4.2 ESE 13 17 7 9 1011.3 1011.3 0.0
23/02:00pm 28.3 29.7 21.8 68 4.4 ESE 17 24 9 13 1011.5 1011.5 0.0
23/01:30pm 28.2 29.2 21.0 65 4.8 SSE 17 22 9 12 1011.9 1011.9 0.0
23/01:00pm 28.5 30.8 22.0 68 4.4 SSE 13 22 7 12 1012.4 1012.4 0.0
23/12:30pm 27.9 30.0 22.4 72 3.7 SSE 15 20 8 11 1012.9 1012.9 0.0
23/12:00pm 27.6 29.6 22.3 73 3.6 SSE 15 22 8 12 1013.2 1013.2 0.0
23/11:30am 27.5 29.6 23.1 77 3.0 SSE 17 20 9 11 1013.6 1013.6 0.0
23/11:00am 26.9 29.5 22.7 78 2.8 SSE 13 17 7 9 1013.8 1013.8 0.0
23/10:30am 25.9 28.1 21.8 78 2.7 SSE 13 17 7 9 1014.0 1014.0 0.0
23/10:00am 25.7 27.4 21.6 78 2.7 SE 15 19 8 10 1014.2 1014.2 0.0
23/09:30am 25.8 28.0 21.9 79 2.6 S 13 19 7 10 1014.2 1014.2 0.0

Other Formats:

Comma delimited format used in spreadsheet applications
http://www.bom.gov.au/fwo/IDQ60801/IDQ60801.94287.axf

JavaScript Object Notation format (JSON) in row-major order
http://www.bom.gov.au/fwo/IDQ60801/IDQ60801.94287.json